Tawau, Malaysia
Current Conditions -  °F | °C
As of 3:00 PM on Sunday 26 Oct 2014 (Local Time) from WBKW Reporting Station
Broken Clouds Broken Clouds  
Wind Chill: 90°   Ceiling: 30000
Heat Index: 102°   Visibility: 6mi
Dew Point: 77°   Wind: 8mph
Humidity: 66%   Direction: 170°S
Pressure: 29.77"   Gusts: NA
Location:  4.26°N, 117.88°E
Report Text: WBKW 260700Z 17007KT 9999 FEW016CB BKN300 32/25 Q1008
Loading
Personal Weather Stations






























Interactive Weather Map
Tropical Storm Tracking
New forecast layout! Learn more

10-Day Weather Forecast

Advertisements
Track Severe Weather on mobile